sensor_id;sensor_type;location;lat;lon;timestamp;P1;durP1;ratioP1;P2;durP2;ratioP2
77012;SDS011;67260;53.130;17.982;2024-03-02T00:00:48;60.40;;;28.80;;
77012;SDS011;67260;53.130;17.982;2024-03-02T00:03:33;63.70;;;30.00;;
77012;SDS011;67260;53.130;17.982;2024-03-02T00:06:24;65.60;;;30.90;;
77012;SDS011;67260;53.130;17.982;2024-03-02T00:09:00;65.20;;;30.80;;
77012;SDS011;67260;53.130;17.982;2024-03-02T00:11:37;68.20;;;31.40;;
77012;SDS011;67260;53.130;17.982;2024-03-02T00:14:09;69.40;;;31.60;;
77012;SDS011;67260;53.130;17.982;2024-03-02T00:16:54;59.90;;;29.20;;
77012;SDS011;67260;53.130;17.982;2024-03-02T00:38:38;59.30;;;27.10;;
77012;SDS011;67260;53.130;17.982;2024-03-02T00:41:29;61.90;;;28.00;;
77012;SDS011;67260;53.130;17.982;2024-03-02T00:44:43;62.80;;;30.00;;
77012;SDS011;67260;53.130;17.982;2024-03-02T00:47:13;70.30;;;31.30;;
77012;SDS011;67260;53.130;17.982;2024-03-02T00:49:40;65.60;;;30.70;;
77012;SDS011;67260;53.130;17.982;2024-03-02T00:52:10;62.40;;;30.00;;
77012;SDS011;67260;53.130;17.982;2024-03-02T00:54:44;67.40;;;32.30;;
77012;SDS011;67260;53.130;17.982;2024-03-02T01:14:01;70.90;;;30.00;;
77012;SDS011;67260;53.130;17.982;2024-03-02T01:16:30;71.50;;;32.30;;
77012;SDS011;67260;53.130;17.982;2024-03-02T01:18:59;73.50;;;32.00;;
77012;SDS011;67260;53.130;17.982;2024-03-02T01:21:46;75.90;;;33.50;;
77012;SDS011;67260;53.130;17.982;2024-03-02T01:24:16;73.90;;;32.30;;
77012;SDS011;67260;53.130;17.982;2024-03-02T01:26:47;77.20;;;33.40;;
77012;SDS011;67260;53.130;17.982;2024-03-02T01:29:25;75.90;;;34.30;;
77012;SDS011;67260;53.130;17.982;2024-03-02T01:34:53;75.80;;;33.60;;
77012;SDS011;67260;53.130;17.982;2024-03-02T01:37:29;78.60;;;33.70;;
77012;SDS011;67260;53.130;17.982;2024-03-02T01:39:55;76.20;;;33.70;;
77012;SDS011;67260;53.130;17.982;2024-03-02T01:42:31;78.00;;;34.90;;
77012;SDS011;67260;53.130;17.982;2024-03-02T01:48:47;72.30;;;31.50;;
77012;SDS011;67260;53.130;17.982;2024-03-02T01:51:20;75.10;;;32.80;;
77012;SDS011;67260;53.130;17.982;2024-03-02T01:54:35;67.90;;;30.30;;
77012;SDS011;67260;53.130;17.982;2024-03-02T02:04:11;76.20;;;32.70;;
77012;SDS011;67260;53.130;17.982;2024-03-02T02:06:43;71.20;;;32.80;;
77012;SDS011;67260;53.130;17.982;2024-03-02T02:09:31;70.00;;;31.00;;
77012;SDS011;67260;53.130;17.982;2024-03-02T02:12:05;66.60;;;29.60;;
77012;SDS011;67260;53.130;17.982;2024-03-02T02:25:12;64.40;;;29.70;;
77012;SDS011;67260;53.130;17.982;2024-03-02T02:27:40;65.10;;;31.40;;
77012;SDS011;67260;53.130;17.982;2024-03-02T02:34:15;69.60;;;30.40;;
77012;SDS011;67260;53.130;17.982;2024-03-02T02:36:46;72.00;;;33.70;;
77012;SDS011;67260;53.130;17.982;2024-03-02T02:46:02;67.70;;;30.30;;
77012;SDS011;67260;53.130;17.982;2024-03-02T02:48:51;69.90;;;30.70;;
77012;SDS011;67260;53.130;17.982;2024-03-02T02:52:10;67.10;;;28.40;;
77012;SDS011;67260;53.130;17.982;2024-03-02T02:54:43;62.20;;;28.70;;
77012;SDS011;67260;53.130;17.982;2024-03-02T03:00:29;63.40;;;28.90;;
77012;SDS011;67260;53.130;17.982;2024-03-02T03:03:08;67.80;;;29.80;;
77012;SDS011;67260;53.130;17.982;2024-03-02T03:05:44;68.50;;;29.70;;
77012;SDS011;67260;53.130;17.982;2024-03-02T03:11:31;60.70;;;27.80;;
77012;SDS011;67260;53.130;17.982;2024-03-02T03:14:19;59.60;;;27.20;;
77012;SDS011;67260;53.130;17.982;2024-03-02T03:16:58;64.50;;;29.10;;
77012;SDS011;67260;53.130;17.982;2024-03-02T03:19:25;61.70;;;29.20;;
77012;SDS011;67260;53.130;17.982;2024-03-02T03:24:18;62.00;;;26.70;;
77012;SDS011;67260;53.130;17.982;2024-03-02T03:26:48;62.10;;;28.40;;
77012;SDS011;67260;53.130;17.982;2024-03-02T03:29:14;58.10;;;25.80;;
77012;SDS011;67260;53.130;17.982;2024-03-02T03:37:38;61.40;;;27.60;;
77012;SDS011;67260;53.130;17.982;2024-03-02T03:40:09;57.60;;;27.40;;
77012;SDS011;67260;53.130;17.982;2024-03-02T03:42:40;53.40;;;27.00;;
77012;SDS011;67260;53.130;17.982;2024-03-02T03:48:08;54.30;;;26.00;;
77012;SDS011;67260;53.130;17.982;2024-03-02T03:50:35;54.80;;;26.60;;
77012;SDS011;67260;53.130;17.982;2024-03-02T03:53:05;52.00;;;25.00;;
77012;SDS011;67260;53.130;17.982;2024-03-02T03:55:32;46.10;;;24.10;;
77012;SDS011;67260;53.130;17.982;2024-03-02T03:57:59;53.00;;;24.30;;
77012;SDS011;67260;53.130;17.982;2024-03-02T04:00:30;48.40;;;24.00;;
77012;SDS011;67260;53.130;17.982;2024-03-02T04:06:08;45.30;;;22.90;;
77012;SDS011;67260;53.130;17.982;2024-03-02T04:09:11;44.60;;;22.40;;
77012;SDS011;67260;53.130;17.982;2024-03-02T04:11:40;44.20;;;23.20;;
77012;SDS011;67260;53.130;17.982;2024-03-02T04:14:21;43.10;;;22.30;;
77012;SDS011;67260;53.130;17.982;2024-03-02T04:16:48;40.70;;;21.30;;
77012;SDS011;67260;53.130;17.982;2024-03-02T04:19:18;42.00;;;22.60;;
77012;SDS011;67260;53.130;17.982;2024-03-02T04:21:48;43.70;;;23.40;;
77012;SDS011;67260;53.130;17.982;2024-03-02T04:24:16;43.20;;;21.90;;
77012;SDS011;67260;53.130;17.982;2024-03-02T04:26:49;41.70;;;22.70;;
77012;SDS011;67260;53.130;17.982;2024-03-02T04:29:21;42.20;;;22.80;;
77012;SDS011;67260;53.130;17.982;2024-03-02T04:31:49;43.70;;;22.80;;
77012;SDS011;67260;53.130;17.982;2024-03-02T04:34:19;46.30;;;22.60;;
77012;SDS011;67260;53.130;17.982;2024-03-02T04:41:06;42.30;;;21.90;;
77012;SDS011;67260;53.130;17.982;2024-03-02T04:43:51;38.90;;;20.50;;
77012;SDS011;67260;53.130;17.982;2024-03-02T04:46:36;37.00;;;20.40;;
77012;SDS011;67260;53.130;17.982;2024-03-02T04:49:11;40.30;;;21.70;;
77012;SDS011;67260;53.130;17.982;2024-03-02T04:51:52;41.80;;;21.40;;
77012;SDS011;67260;53.130;17.982;2024-03-02T04:54:19;45.50;;;22.10;;
77012;SDS011;67260;53.130;17.982;2024-03-02T04:57:12;41.40;;;22.20;;
77012;SDS011;67260;53.130;17.982;2024-03-02T05:00:03;41.60;;;21.50;;
77012;SDS011;67260;53.130;17.982;2024-03-02T05:03:40;41.90;;;20.70;;
77012;SDS011;67260;53.130;17.982;2024-03-02T05:06:21;40.10;;;22.30;;
77012;SDS011;67260;53.130;17.982;2024-03-02T05:08:58;43.00;;;21.40;;
77012;SDS011;67260;53.130;17.982;2024-03-02T05:11:36;41.30;;;22.50;;
77012;SDS011;67260;53.130;17.982;2024-03-02T05:14:17;39.20;;;21.20;;
77012;SDS011;67260;53.130;17.982;2024-03-02T05:16:45;39.80;;;22.10;;
77012;SDS011;67260;53.130;17.982;2024-03-02T05:19:13;40.20;;;21.20;;
77012;SDS011;67260;53.130;17.982;2024-03-02T05:21:43;39.10;;;21.20;;
77012;SDS011;67260;53.130;17.982;2024-03-02T05:27:39;40.60;;;20.10;;
77012;SDS011;67260;53.130;17.982;2024-03-02T05:30:06;37.40;;;20.00;;
77012;SDS011;67260;53.130;17.982;2024-03-02T05:32:33;41.70;;;22.00;;
77012;SDS011;67260;53.130;17.982;2024-03-02T05:35:08;39.80;;;20.80;;
77012;SDS011;67260;53.130;17.982;2024-03-02T05:37:44;42.20;;;22.60;;
77012;SDS011;67260;53.130;17.982;2024-03-02T05:40:27;41.50;;;23.50;;
77012;SDS011;67260;53.130;17.982;2024-03-02T05:42:57;41.00;;;22.10;;
77012;SDS011;67260;53.130;17.982;2024-03-02T05:45:40;42.60;;;23.10;;
77012;SDS011;67260;53.130;17.982;2024-03-02T05:48:08;42.50;;;22.80;;
77012;SDS011;67260;53.130;17.982;2024-03-02T05:50:45;44.60;;;22.60;;
77012;SDS011;67260;53.130;17.982;2024-03-02T05:53:15;45.20;;;23.10;;
77012;SDS011;67260;53.130;17.982;2024-03-02T05:55:44;41.70;;;22.60;;
77012;SDS011;67260;53.130;17.982;2024-03-02T05:58:12;42.40;;;22.30;;
77012;SDS011;67260;53.130;17.982;2024-03-02T06:00:55;41.40;;;22.40;;
77012;SDS011;67260;53.130;17.982;2024-03-02T06:03:44;40.60;;;21.40;;
77012;SDS011;67260;53.130;17.982;2024-03-02T06:10:26;37.30;;;21.00;;
77012;SDS011;67260;53.130;17.982;2024-03-02T06:13:22;39.10;;;21.80;;
77012;SDS011;67260;53.130;17.982;2024-03-02T06:16:56;41.80;;;23.50;;
77012;SDS011;67260;53.130;17.982;2024-03-02T06:19:33;43.10;;;23.20;;
77012;SDS011;67260;53.130;17.982;2024-03-02T06:22:17;40.40;;;21.40;;
77012;SDS011;67260;53.130;17.982;2024-03-02T06:25:45;44.90;;;22.80;;
77012;SDS011;67260;53.130;17.982;2024-03-02T06:28:25;38.30;;;22.40;;
77012;SDS011;67260;53.130;17.982;2024-03-02T06:31:12;40.60;;;22.70;;
77012;SDS011;67260;53.130;17.982;2024-03-02T06:33:52;40.30;;;21.30;;
77012;SDS011;67260;53.130;17.982;2024-03-02T06:39:53;41.80;;;22.40;;
77012;SDS011;67260;53.130;17.982;2024-03-02T06:46:04;36.40;;;20.70;;
77012;SDS011;67260;53.130;17.982;2024-03-02T06:48:35;43.30;;;23.50;;
77012;SDS011;67260;53.130;17.982;2024-03-02T06:51:08;43.00;;;24.30;;
77012;SDS011;67260;53.130;17.982;2024-03-02T06:53:38;44.10;;;25.50;;
77012;SDS011;67260;53.130;17.982;2024-03-02T06:56:56;42.70;;;24.10;;
77012;SDS011;67260;53.130;17.982;2024-03-02T07:06:59;42.30;;;23.20;;
77012;SDS011;67260;53.130;17.982;2024-03-02T07:09:37;44.30;;;25.10;;
77012;SDS011;67260;53.130;17.982;2024-03-02T07:12:57;39.90;;;23.10;;
77012;SDS011;67260;53.130;17.982;2024-03-02T07:16:20;44.60;;;26.40;;
77012;SDS011;67260;53.130;17.982;2024-03-02T07:22:50;41.50;;;23.90;;
77012;SDS011;67260;53.130;17.982;2024-03-02T07:25:17;38.70;;;22.40;;
77012;SDS011;67260;53.130;17.982;2024-03-02T07:27:58;41.20;;;23.70;;
77012;SDS011;67260;53.130;17.982;2024-03-02T07:38:18;40.40;;;21.80;;
77012;SDS011;67260;53.130;17.982;2024-03-02T07:41:14;39.20;;;21.70;;
77012;SDS011;67260;53.130;17.982;2024-03-02T07:43:44;39.20;;;23.40;;
77012;SDS011;67260;53.130;17.982;2024-03-02T07:50:02;35.80;;;21.00;;
77012;SDS011;67260;53.130;17.982;2024-03-02T07:52:33;35.00;;;21.30;;
77012;SDS011;67260;53.130;17.982;2024-03-02T07:54:59;30.00;;;20.40;;
77012;SDS011;67260;53.130;17.982;2024-03-02T07:57:26;31.00;;;21.20;;
77012;SDS011;67260;53.130;17.982;2024-03-02T07:59:53;30.70;;;21.10;;
77012;SDS011;67260;53.130;17.982;2024-03-02T08:02:20;27.70;;;20.30;;
77012;SDS011;67260;53.130;17.982;2024-03-02T08:04:47;29.40;;;21.00;;
77012;SDS011;67260;53.130;17.982;2024-03-02T08:07:13;30.10;;;21.00;;
77012;SDS011;67260;53.130;17.982;2024-03-02T08:09:40;28.80;;;20.30;;
77012;SDS011;67260;53.130;17.982;2024-03-02T08:12:11;26.70;;;19.50;;
77012;SDS011;67260;53.130;17.982;2024-03-02T08:14:38;25.20;;;19.90;;
77012;SDS011;67260;53.130;17.982;2024-03-02T08:17:05;23.70;;;17.10;;
77012;SDS011;67260;53.130;17.982;2024-03-02T08:19:36;22.20;;;17.20;;
77012;SDS011;67260;53.130;17.982;2024-03-02T08:22:03;20.90;;;16.80;;
77012;SDS011;67260;53.130;17.982;2024-03-02T08:24:30;21.00;;;16.70;;
77012;SDS011;67260;53.130;17.982;2024-03-02T08:26:58;21.00;;;16.20;;
77012;SDS011;67260;53.130;17.982;2024-03-02T08:29:25;20.50;;;17.10;;
77012;SDS011;67260;53.130;17.982;2024-03-02T08:31:52;23.20;;;18.50;;
77012;SDS011;67260;53.130;17.982;2024-03-02T08:34:20;25.00;;;17.90;;
77012;SDS011;67260;53.130;17.982;2024-03-02T08:36:46;19.90;;;15.60;;
77012;SDS011;67260;53.130;17.982;2024-03-02T08:39:14;19.30;;;15.90;;
77012;SDS011;67260;53.130;17.982;2024-03-02T08:41:46;21.90;;;17.00;;
77012;SDS011;67260;53.130;17.982;2024-03-02T08:46:48;21.80;;;16.80;;
77012;SDS011;67260;53.130;17.982;2024-03-02T08:49:27;21.20;;;16.00;;
77012;SDS011;67260;53.130;17.982;2024-03-02T08:52:01;19.50;;;16.20;;
77012;SDS011;67260;53.130;17.982;2024-03-02T08:54:27;19.50;;;16.00;;
77012;SDS011;67260;53.130;17.982;2024-03-02T08:56:55;21.40;;;16.50;;
77012;SDS011;67260;53.130;17.982;2024-03-02T08:59:21;22.70;;;17.90;;
77012;SDS011;67260;53.130;17.982;2024-03-02T09:01:51;21.90;;;16.60;;
77012;SDS011;67260;53.130;17.982;2024-03-02T09:04:19;20.40;;;16.60;;
77012;SDS011;67260;53.130;17.982;2024-03-02T09:06:46;22.60;;;17.80;;
77012;SDS011;67260;53.130;17.982;2024-03-02T09:09:15;22.70;;;18.60;;
77012;SDS011;67260;53.130;17.982;2024-03-02T09:11:42;23.50;;;17.50;;
77012;SDS011;67260;53.130;17.982;2024-03-02T09:14:11;22.70;;;17.40;;
77012;SDS011;67260;53.130;17.982;2024-03-02T09:16:37;24.20;;;17.40;;
77012;SDS011;67260;53.130;17.982;2024-03-02T09:19:04;26.60;;;17.20;;
77012;SDS011;67260;53.130;17.982;2024-03-02T09:21:31;25.00;;;18.20;;
77012;SDS011;67260;53.130;17.982;2024-03-02T09:23:59;26.30;;;18.30;;
77012;SDS011;67260;53.130;17.982;2024-03-02T09:26:26;25.90;;;19.60;;
77012;SDS011;67260;53.130;17.982;2024-03-02T09:28:54;23.80;;;17.70;;
77012;SDS011;67260;53.130;17.982;2024-03-02T09:31:21;22.60;;;17.30;;
77012;SDS011;67260;53.130;17.982;2024-03-02T09:33:49;23.40;;;18.20;;
77012;SDS011;67260;53.130;17.982;2024-03-02T09:36:17;25.20;;;16.00;;
77012;SDS011;67260;53.130;17.982;2024-03-02T09:38:45;22.30;;;17.70;;
77012;SDS011;67260;53.130;17.982;2024-03-02T09:41:11;21.40;;;17.20;;
77012;SDS011;67260;53.130;17.982;2024-03-02T09:43:39;21.80;;;16.60;;
77012;SDS011;67260;53.130;17.982;2024-03-02T09:46:08;20.40;;;16.10;;
77012;SDS011;67260;53.130;17.982;2024-03-02T09:48:37;19.90;;;15.50;;
77012;SDS011;67260;53.130;17.982;2024-03-02T09:51:05;22.60;;;16.00;;
77012;SDS011;67260;53.130;17.982;2024-03-02T09:53:32;21.00;;;16.30;;
77012;SDS011;67260;53.130;17.982;2024-03-02T09:56:00;19.80;;;16.30;;
77012;SDS011;67260;53.130;17.982;2024-03-02T09:58:27;21.80;;;15.60;;
77012;SDS011;67260;53.130;17.982;2024-03-02T10:00:55;19.90;;;16.50;;
77012;SDS011;67260;53.130;17.982;2024-03-02T10:03:24;19.30;;;16.00;;
77012;SDS011;67260;53.130;17.982;2024-03-02T10:05:53;18.90;;;15.70;;
77012;SDS011;67260;53.130;17.982;2024-03-02T10:12:30;21.00;;;16.20;;
77012;SDS011;67260;53.130;17.982;2024-03-02T10:15:02;23.90;;;17.00;;
77012;SDS011;67260;53.130;17.982;2024-03-02T10:17:34;22.30;;;16.60;;
77012;SDS011;67260;53.130;17.982;2024-03-02T10:20:21;18.90;;;15.50;;
77012;SDS011;67260;53.130;17.982;2024-03-02T10:25:43;19.00;;;14.40;;
77012;SDS011;67260;53.130;17.982;2024-03-02T10:28:18;20.10;;;15.40;;
77012;SDS011;67260;53.130;17.982;2024-03-02T10:30:47;20.40;;;16.00;;
77012;SDS011;67260;53.130;17.982;2024-03-02T10:36:28;20.60;;;16.00;;
77012;SDS011;67260;53.130;17.982;2024-03-02T10:38:58;20.60;;;15.50;;
77012;SDS011;67260;53.130;17.982;2024-03-02T10:41:34;22.60;;;15.30;;
77012;SDS011;67260;53.130;17.982;2024-03-02T10:47:18;18.40;;;14.40;;
77012;SDS011;67260;53.130;17.982;2024-03-02T10:53:34;20.50;;;15.60;;
77012;SDS011;67260;53.130;17.982;2024-03-02T10:56:34;24.90;;;19.10;;
77012;SDS011;67260;53.130;17.982;2024-03-02T10:59:18;22.80;;;16.40;;
77012;SDS011;67260;53.130;17.982;2024-03-02T11:01:56;26.10;;;17.70;;
77012;SDS011;67260;53.130;17.982;2024-03-02T11:04:30;25.70;;;17.50;;
77012;SDS011;67260;53.130;17.982;2024-03-02T11:09:32;23.70;;;17.30;;
77012;SDS011;67260;53.130;17.982;2024-03-02T11:15:15;25.40;;;17.70;;
77012;SDS011;67260;53.130;17.982;2024-03-02T11:17:51;26.30;;;18.20;;
77012;SDS011;67260;53.130;17.982;2024-03-02T11:20:23;26.10;;;17.20;;
77012;SDS011;67260;53.130;17.982;2024-03-02T11:32:58;36.20;;;21.70;;
77012;SDS011;67260;53.130;17.982;2024-03-02T11:35:25;28.10;;;19.10;;
77012;SDS011;67260;53.130;17.982;2024-03-02T11:37:52;29.20;;;19.60;;
77012;SDS011;67260;53.130;17.982;2024-03-02T11:40:23;28.60;;;19.00;;
77012;SDS011;67260;53.130;17.982;2024-03-02T11:42:57;27.10;;;18.80;;
77012;SDS011;67260;53.130;17.982;2024-03-02T11:46:03;29.40;;;18.50;;
77012;SDS011;67260;53.130;17.982;2024-03-02T11:48:48;22.30;;;15.80;;
77012;SDS011;67260;53.130;17.982;2024-03-02T11:51:15;30.40;;;19.10;;
77012;SDS011;67260;53.130;17.982;2024-03-02T11:53:46;25.70;;;18.30;;
77012;SDS011;67260;53.130;17.982;2024-03-02T11:56:14;27.60;;;17.40;;
77012;SDS011;67260;53.130;17.982;2024-03-02T11:58:43;30.50;;;19.30;;
77012;SDS011;67260;53.130;17.982;2024-03-02T12:01:11;26.70;;;18.50;;
77012;SDS011;67260;53.130;17.982;2024-03-02T12:03:54;29.00;;;18.90;;
77012;SDS011;67260;53.130;17.982;2024-03-02T12:06:29;27.60;;;18.60;;
77012;SDS011;67260;53.130;17.982;2024-03-02T12:08:58;28.60;;;19.70;;
77012;SDS011;67260;53.130;17.982;2024-03-02T12:11:25;27.00;;;19.00;;
77012;SDS011;67260;53.130;17.982;2024-03-02T12:13:52;28.20;;;18.60;;
77012;SDS011;67260;53.130;17.982;2024-03-02T12:16:25;30.00;;;19.70;;
77012;SDS011;67260;53.130;17.982;2024-03-02T12:18:52;30.20;;;20.40;;
77012;SDS011;67260;53.130;17.982;2024-03-02T12:21:20;28.70;;;18.50;;
77012;SDS011;67260;53.130;17.982;2024-03-02T12:23:47;26.70;;;17.60;;
77012;SDS011;67260;53.130;17.982;2024-03-02T12:26:21;29.30;;;19.00;;
77012;SDS011;67260;53.130;17.982;2024-03-02T12:28:50;28.40;;;19.60;;
77012;SDS011;67260;53.130;17.982;2024-03-02T12:31:18;30.60;;;19.50;;
77012;SDS011;67260;53.130;17.982;2024-03-02T12:33:46;31.70;;;19.90;;
77012;SDS011;67260;53.130;17.982;2024-03-02T12:36:13;28.50;;;18.70;;
77012;SDS011;67260;53.130;17.982;2024-03-02T12:38:43;28.20;;;19.20;;
77012;SDS011;67260;53.130;17.982;2024-03-02T12:41:14;30.70;;;20.20;;
77012;SDS011;67260;53.130;17.982;2024-03-02T12:43:42;29.50;;;19.90;;
77012;SDS011;67260;53.130;17.982;2024-03-02T12:46:10;26.80;;;18.20;;
77012;SDS011;67260;53.130;17.982;2024-03-02T12:57:41;29.90;;;18.90;;
77012;SDS011;67260;53.130;17.982;2024-03-02T13:00:10;30.20;;;20.30;;
77012;SDS011;67260;53.130;17.982;2024-03-02T13:02:41;36.10;;;21.60;;
77012;SDS011;67260;53.130;17.982;2024-03-02T13:05:08;34.40;;;21.20;;
77012;SDS011;67260;53.130;17.982;2024-03-02T13:08:05;29.30;;;19.40;;
77012;SDS011;67260;53.130;17.982;2024-03-02T13:10:34;28.20;;;18.70;;
77012;SDS011;67260;53.130;17.982;2024-03-02T13:13:01;30.40;;;18.50;;
77012;SDS011;67260;53.130;17.982;2024-03-02T13:15:28;29.80;;;20.20;;
77012;SDS011;67260;53.130;17.982;2024-03-02T13:17:58;32.80;;;21.10;;
77012;SDS011;67260;53.130;17.982;2024-03-02T13:20:33;31.00;;;21.30;;
77012;SDS011;67260;53.130;17.982;2024-03-02T13:23:02;29.50;;;19.90;;
77012;SDS011;67260;53.130;17.982;2024-03-02T13:25:36;29.20;;;19.40;;
77012;SDS011;67260;53.130;17.982;2024-03-02T13:28:03;31.20;;;19.80;;
77012;SDS011;67260;53.130;17.982;2024-03-02T13:30:36;30.20;;;20.20;;
77012;SDS011;67260;53.130;17.982;2024-03-02T13:33:03;32.20;;;20.80;;
77012;SDS011;67260;53.130;17.982;2024-03-02T13:35:31;33.40;;;21.30;;
77012;SDS011;67260;53.130;17.982;2024-03-02T13:37:59;35.20;;;22.50;;
77012;SDS011;67260;53.130;17.982;2024-03-02T13:40:41;34.00;;;20.10;;
77012;SDS011;67260;53.130;17.982;2024-03-02T13:43:08;33.50;;;21.60;;
77012;SDS011;67260;53.130;17.982;2024-03-02T13:45:37;29.60;;;19.50;;
77012;SDS011;67260;53.130;17.982;2024-03-02T13:48:07;33.00;;;20.60;;
77012;SDS011;67260;53.130;17.982;2024-03-02T13:50:33;30.60;;;20.20;;
77012;SDS011;67260;53.130;17.982;2024-03-02T13:53:09;36.00;;;20.60;;
77012;SDS011;67260;53.130;17.982;2024-03-02T13:55:35;30.90;;;21.00;;
77012;SDS011;67260;53.130;17.982;2024-03-02T14:01:10;37.60;;;22.10;;
77012;SDS011;67260;53.130;17.982;2024-03-02T14:03:54;34.50;;;21.10;;
77012;SDS011;67260;53.130;17.982;2024-03-02T14:06:44;35.20;;;21.30;;
77012;SDS011;67260;53.130;17.982;2024-03-02T14:09:16;34.90;;;21.30;;
77012;SDS011;67260;53.130;17.982;2024-03-02T14:11:56;34.60;;;20.30;;
77012;SDS011;67260;53.130;17.982;2024-03-02T14:14:23;34.90;;;21.70;;
77012;SDS011;67260;53.130;17.982;2024-03-02T14:17:04;34.70;;;21.10;;
77012;SDS011;67260;53.130;17.982;2024-03-02T14:19:32;34.80;;;20.90;;
77012;SDS011;67260;53.130;17.982;2024-03-02T14:21:59;35.00;;;21.10;;
77012;SDS011;67260;53.130;17.982;2024-03-02T14:24:26;35.30;;;21.40;;
77012;SDS011;67260;53.130;17.982;2024-03-02T14:27:00;33.60;;;20.10;;
77012;SDS011;67260;53.130;17.982;2024-03-02T14:31:59;38.20;;;22.90;;
77012;SDS011;67260;53.130;17.982;2024-03-02T14:34:26;37.80;;;23.80;;
77012;SDS011;67260;53.130;17.982;2024-03-02T14:36:53;40.90;;;24.80;;
77012;SDS011;67260;53.130;17.982;2024-03-02T14:39:20;40.60;;;23.50;;
77012;SDS011;67260;53.130;17.982;2024-03-02T14:41:53;46.80;;;25.60;;
77012;SDS011;67260;53.130;17.982;2024-03-02T14:44:26;43.00;;;24.80;;
77012;SDS011;67260;53.130;17.982;2024-03-02T14:47:28;45.30;;;25.30;;
77012;SDS011;67260;53.130;17.982;2024-03-02T14:49:58;44.80;;;25.10;;
77012;SDS011;67260;53.130;17.982;2024-03-02T14:52:33;43.40;;;24.00;;
77012;SDS011;67260;53.130;17.982;2024-03-02T14:55:02;46.20;;;26.50;;
77012;SDS011;67260;53.130;17.982;2024-03-02T14:57:34;50.10;;;26.80;;
77012;SDS011;67260;53.130;17.982;2024-03-02T15:00:00;48.40;;;27.00;;
77012;SDS011;67260;53.130;17.982;2024-03-02T15:02:28;50.90;;;26.80;;
77012;SDS011;67260;53.130;17.982;2024-03-02T15:04:58;43.30;;;24.90;;
77012;SDS011;67260;53.130;17.982;2024-03-02T15:07:31;47.70;;;26.20;;
77012;SDS011;67260;53.130;17.982;2024-03-02T15:10:00;45.70;;;26.00;;
77012;SDS011;67260;53.130;17.982;2024-03-02T15:18:21;46.70;;;24.20;;
77012;SDS011;67260;53.130;17.982;2024-03-02T15:20:48;45.50;;;25.50;;
77012;SDS011;67260;53.130;17.982;2024-03-02T15:26:29;49.00;;;26.30;;
77012;SDS011;67260;53.130;17.982;2024-03-02T15:31:27;45.90;;;24.80;;
77012;SDS011;67260;53.130;17.982;2024-03-02T15:33:54;49.70;;;25.30;;
77012;SDS011;67260;53.130;17.982;2024-03-02T15:36:38;53.60;;;29.10;;
77012;SDS011;67260;53.130;17.982;2024-03-02T15:39:20;48.00;;;25.80;;
77012;SDS011;67260;53.130;17.982;2024-03-02T15:41:50;60.00;;;35.50;;
77012;SDS011;67260;53.130;17.982;2024-03-02T15:44:17;49.90;;;28.60;;
77012;SDS011;67260;53.130;17.982;2024-03-02T15:46:47;52.80;;;28.50;;
77012;SDS011;67260;53.130;17.982;2024-03-02T15:49:14;54.20;;;28.20;;
77012;SDS011;67260;53.130;17.982;2024-03-02T15:51:50;48.40;;;26.40;;
77012;SDS011;67260;53.130;17.982;2024-03-02T15:57:47;53.40;;;26.10;;
77012;SDS011;67260;53.130;17.982;2024-03-02T16:00:14;48.40;;;25.30;;
77012;SDS011;67260;53.130;17.982;2024-03-02T16:02:44;55.00;;;28.40;;
77012;SDS011;67260;53.130;17.982;2024-03-02T16:05:21;55.50;;;27.70;;
77012;SDS011;67260;53.130;17.982;2024-03-02T16:07:52;51.80;;;27.40;;
77012;SDS011;67260;53.130;17.982;2024-03-02T16:10:52;47.80;;;26.80;;
77012;SDS011;67260;53.130;17.982;2024-03-02T16:14:16;52.10;;;26.20;;
77012;SDS011;67260;53.130;17.982;2024-03-02T16:16:55;55.60;;;27.90;;
77012;SDS011;67260;53.130;17.982;2024-03-02T16:20:12;50.00;;;26.70;;
77012;SDS011;67260;53.130;17.982;2024-03-02T16:22:39;51.50;;;27.60;;
77012;SDS011;67260;53.130;17.982;2024-03-02T16:25:06;49.70;;;26.40;;
77012;SDS011;67260;53.130;17.982;2024-03-02T16:27:33;50.30;;;26.80;;
77012;SDS011;67260;53.130;17.982;2024-03-02T16:30:00;52.40;;;28.90;;
77012;SDS011;67260;53.130;17.982;2024-03-02T16:32:31;49.70;;;27.10;;
77012;SDS011;67260;53.130;17.982;2024-03-02T16:35:10;48.60;;;27.00;;
77012;SDS011;67260;53.130;17.982;2024-03-02T16:38:00;49.50;;;25.30;;
77012;SDS011;67260;53.130;17.982;2024-03-02T16:43:21;49.50;;;27.20;;
77012;SDS011;67260;53.130;17.982;2024-03-02T16:45:56;49.10;;;26.00;;
77012;SDS011;67260;53.130;17.982;2024-03-02T16:48:22;49.90;;;25.40;;
77012;SDS011;67260;53.130;17.982;2024-03-02T16:50:52;51.70;;;28.10;;
77012;SDS011;67260;53.130;17.982;2024-03-02T16:53:20;52.40;;;28.60;;
77012;SDS011;67260;53.130;17.982;2024-03-02T16:55:47;52.20;;;28.90;;
77012;SDS011;67260;53.130;17.982;2024-03-02T16:58:17;58.30;;;31.80;;
77012;SDS011;67260;53.130;17.982;2024-03-02T17:03:31;51.20;;;27.10;;
77012;SDS011;67260;53.130;17.982;2024-03-02T17:05:58;47.90;;;24.10;;
77012;SDS011;67260;53.130;17.982;2024-03-02T17:08:26;49.70;;;27.30;;
77012;SDS011;67260;53.130;17.982;2024-03-02T17:10:55;48.90;;;27.40;;
77012;SDS011;67260;53.130;17.982;2024-03-02T17:13:22;52.60;;;27.10;;
77012;SDS011;67260;53.130;17.982;2024-03-02T17:15:50;48.00;;;26.50;;
77012;SDS011;67260;53.130;17.982;2024-03-02T17:18:16;73.90;;;38.40;;
77012;SDS011;67260;53.130;17.982;2024-03-02T17:20:44;50.40;;;28.30;;
77012;SDS011;67260;53.130;17.982;2024-03-02T17:23:11;48.40;;;27.30;;
77012;SDS011;67260;53.130;17.982;2024-03-02T17:25:46;45.30;;;24.70;;
77012;SDS011;67260;53.130;17.982;2024-03-02T17:28:19;50.10;;;26.90;;
77012;SDS011;67260;53.130;17.982;2024-03-02T17:30:51;52.40;;;28.20;;
77012;SDS011;67260;53.130;17.982;2024-03-02T17:33:19;55.30;;;28.30;;
77012;SDS011;67260;53.130;17.982;2024-03-02T17:35:45;57.20;;;30.70;;
77012;SDS011;67260;53.130;17.982;2024-03-02T17:38:14;53.60;;;28.80;;
77012;SDS011;67260;53.130;17.982;2024-03-02T17:40:43;56.00;;;30.00;;
77012;SDS011;67260;53.130;17.982;2024-03-02T17:43:11;53.60;;;27.60;;
77012;SDS011;67260;53.130;17.982;2024-03-02T17:45:38;50.70;;;28.20;;
77012;SDS011;67260;53.130;17.982;2024-03-02T17:48:09;52.70;;;29.10;;
77012;SDS011;67260;53.130;17.982;2024-03-02T17:50:38;49.90;;;27.30;;
77012;SDS011;67260;53.130;17.982;2024-03-02T17:53:05;52.70;;;28.50;;
77012;SDS011;67260;53.130;17.982;2024-03-02T17:55:31;52.80;;;27.80;;
77012;SDS011;67260;53.130;17.982;2024-03-02T17:57:58;52.30;;;27.50;;
77012;SDS011;67260;53.130;17.982;2024-03-02T18:00:27;50.80;;;26.70;;
77012;SDS011;67260;53.130;17.982;2024-03-02T18:02:54;52.80;;;27.30;;
77012;SDS011;67260;53.130;17.982;2024-03-02T18:05:21;52.70;;;27.50;;
77012;SDS011;67260;53.130;17.982;2024-03-02T18:07:48;58.80;;;32.70;;
77012;SDS011;67260;53.130;17.982;2024-03-02T18:10:15;46.70;;;24.70;;